Time;durP1;ratioP1;P1;durP2;ratioP2;P2;SDS_P1;SDS_P2;PMS_P1;PMS_P2;Temp;Humidity;BMP_temperature;BMP_pressure;BME280_temperature;BME280_humidity;BME280_pressure;Samples;Min_cycle;Max_cycle;Signal;HPM_P1;HPM_P2
2021/12/24 00:00:51;;;;;;;8.43;3.70;;;7.80;99.90;;;;;;4904562;28;20032;-78
2021/12/24 00:03:18;;;;;;;6.07;3.42;;;7.80;99.90;;;;;;4886671;29;20037;-79
2021/12/24 00:05:44;;;;;;;5.85;3.50;;;7.80;99.90;;;;;;4887201;29;20033;-79
2021/12/24 00:08:10;;;;;;;6.53;3.40;;;7.70;99.90;;;;;;4887011;29;20087;-79
2021/12/24 00:10:37;;;;;;;6.10;3.80;;;7.60;99.90;;;;;;4887398;29;20040;-78
2021/12/24 00:13:11;;;;;;;6.00;3.25;;;7.60;99.90;;;;;;4885930;29;20036;-79
2021/12/24 00:18:33;;;;;;;9.73;4.20;;;7.60;99.90;;;;;;4885370;28;20320;-79
2021/12/24 00:37:08;;;;;;;5.88;3.50;;;7.90;99.90;;;;;;4900898;29;20083;-78
2021/12/24 00:39:41;;;;;;;6.75;3.50;;;7.90;99.90;;;;;;4903825;28;20045;-78
2021/12/24 00:42:06;;;;;;;7.13;3.25;;;7.90;99.90;;;;;;4902512;29;20037;-79
2021/12/24 00:44:32;;;;;;;6.82;3.50;;;7.90;99.90;;;;;;4902933;29;20427;-79
2021/12/24 00:46:58;;;;;;;5.72;3.22;;;7.90;99.90;;;;;;4903814;28;20036;-78
2021/12/24 00:49:24;;;;;;;4.93;2.97;;;7.90;99.90;;;;;;4905164;29;20051;-77
2021/12/24 00:52:07;;;;;;;5.88;3.15;;;7.80;99.90;;;;;;4905145;29;20056;-77
2021/12/24 00:57:18;;;;;;;6.82;3.88;;;7.80;99.90;;;;;;4904575;29;20060;-77
2021/12/24 00:59:44;;;;;;;6.40;2.63;;;7.80;99.90;;;;;;4905861;29;20041;-78
2021/12/24 01:02:10;;;;;;;7.63;3.60;;;7.90;99.90;;;;;;4903681;29;20353;-78
2021/12/24 01:04:36;;;;;;;8.02;3.22;;;7.90;99.90;;;;;;4890434;29;20039;-77
2021/12/24 01:07:03;;;;;;;5.82;3.55;;;8.00;99.90;;;;;;4900938;29;20037;-76
2021/12/24 01:09:29;;;;;;;7.57;3.78;;;8.00;99.90;;;;;;4886011;29;20051;-77
2021/12/24 01:11:55;;;;;;;5.25;3.05;;;8.00;99.90;;;;;;4886377;29;20033;-77
2021/12/24 01:14:22;;;;;;;6.00;3.30;;;8.00;99.90;;;;;;4900238;28;20025;-78
2021/12/24 01:17:00;;;;;;;6.38;3.65;;;8.00;99.90;;;;;;4900151;29;20061;-78
2021/12/24 01:19:26;;;;;;;5.40;3.53;;;8.00;99.90;;;;;;4886145;29;20111;-79
2021/12/24 01:25:15;;;;;;;7.10;3.25;;;8.00;99.90;;;;;;4906456;29;20051;-77
2021/12/24 01:27:58;;;;;;;5.75;2.97;;;8.00;99.90;;;;;;4884501;28;20037;-78
2021/12/24 01:38:38;;;;;;;5.90;2.70;;;8.40;99.90;;;;;;4903192;28;20041;-78
2021/12/24 01:41:08;;;;;;;5.57;3.28;;;8.50;99.90;;;;;;4903265;28;20068;-79
2021/12/24 01:43:35;;;;;;;5.28;2.70;;;8.30;99.90;;;;;;4887591;29;20024;-79
2021/12/24 01:46:03;;;;;;;7.70;3.15;;;8.30;99.90;;;;;;4899371;28;20041;-78
2021/12/24 01:48:29;;;;;;;;;;;8.20;99.90;;;;;;4884875;28;20303;-78
2021/12/24 01:50:55;;;;;;;7.75;3.25;;;8.10;99.90;;;;;;4885549;29;19939;-78
2021/12/24 01:53:29;;;;;;;8.13;3.60;;;8.00;99.90;;;;;;4884243;29;20033;-78
2021/12/24 01:55:55;;;;;;;8.48;3.55;;;7.90;99.90;;;;;;4884292;28;20053;-77
2021/12/24 01:58:24;;;;;;;7.00;3.92;;;7.80;99.90;;;;;;4884068;28;20124;-79
2021/12/24 02:00:51;;;;;;;6.45;3.38;;;7.70;99.90;;;;;;4899472;28;20267;-78
2021/12/24 02:03:18;;;;;;;7.10;3.53;;;7.70;99.90;;;;;;4885032;29;20037;-78
2021/12/24 02:05:45;;;;;;;8.02;3.83;;;7.70;99.90;;;;;;4890036;29;20017;-77
2021/12/24 02:08:13;;;;;;;6.53;3.30;;;7.70;99.90;;;;;;4903096;28;20039;-77
2021/12/24 02:10:39;;;;;;;6.37;3.23;;;7.70;99.90;;;;;;4903579;29;20025;-76
2021/12/24 02:13:06;;;;;;;6.82;3.50;;;7.80;99.90;;;;;;4902830;29;20033;-77
2021/12/24 02:29:12;;;;;;;5.18;2.50;;;8.10;99.90;;;;;;4852508;29;20295;-77
2021/12/24 02:31:38;;;;;;;5.80;3.03;;;8.20;99.90;;;;;;4851913;29;20289;-78
2021/12/24 02:34:04;;;;;;;5.70;3.10;;;8.20;99.90;;;;;;4848994;29;20160;-79
2021/12/24 02:36:30;;;;;;;4.00;2.13;;;8.30;99.90;;;;;;4852108;29;20042;-77
2021/12/24 02:38:56;;;;;;;5.30;1.85;;;8.60;99.90;;;;;;4867939;29;20042;-77
2021/12/24 02:41:22;;;;;;;4.60;2.25;;;8.70;99.90;;;;;;4867595;29;20033;-78
2021/12/24 02:43:49;;;;;;;5.20;2.60;;;8.90;99.90;;;;;;4868054;29;20033;-76
2021/12/24 02:46:32;;;;;;;3.45;1.98;;;9.00;99.90;;;;;;4868349;29;20213;-77
2021/12/24 02:49:05;;;;;;;3.58;2.00;;;9.20;99.90;;;;;;4855361;29;20059;-77
2021/12/24 02:54:19;;;;;;;5.75;2.17;;;9.30;99.90;;;;;;4880622;28;20033;-77
2021/12/24 02:56:57;;;;;;;5.15;2.28;;;9.20;99.90;;;;;;4867853;29;20135;-78
2021/12/24 02:59:28;;;;;;;4.63;2.45;;;9.10;99.90;;;;;;4867382;29;20072;-80
2021/12/24 03:01:58;;;;;;;5.03;2.15;;;9.10;99.90;;;;;;4852269;29;20084;-79
2021/12/24 03:04:25;;;;;;;4.55;1.95;;;9.00;99.90;;;;;;4867060;29;20045;-78
2021/12/24 03:06:52;;;;;;;3.17;1.70;;;9.10;99.90;;;;;;4867741;29;20332;-79
2021/12/24 03:09:21;;;;;;;4.78;1.88;;;9.20;99.90;;;;;;4882057;29;20053;-78
2021/12/24 03:11:49;;;;;;;4.50;2.55;;;9.30;99.90;;;;;;4880249;29;20041;-78
2021/12/24 03:14:18;;;;;;;4.55;2.03;;;9.30;99.90;;;;;;4886849;29;20048;-78
2021/12/24 03:16:49;;;;;;;5.55;1.83;;;9.50;99.90;;;;;;4902010;29;20035;-77
2021/12/24 03:19:15;;;;;;;4.93;1.98;;;9.60;99.90;;;;;;4902512;28;20033;-79
2021/12/24 03:21:53;;;;;;;5.43;1.70;;;9.60;99.90;;;;;;4887276;29;20251;-77
2021/12/24 03:26:45;;;;;;;5.65;1.83;;;9.70;99.90;;;;;;4887582;29;20021;-79
2021/12/24 03:29:13;;;;;;;4.43;2.20;;;9.70;99.90;;;;;;4908962;28;20029;-77
2021/12/24 03:31:39;;;;;;;4.93;2.05;;;9.70;99.90;;;;;;4904088;29;20036;-78
2021/12/24 03:34:08;;;;;;;6.28;2.40;;;9.80;99.90;;;;;;4921053;29;20031;-78
2021/12/24 03:36:34;;;;;;;4.72;2.10;;;9.70;99.90;;;;;;4904979;29;20039;-77
2021/12/24 03:39:03;;;;;;;4.75;2.28;;;9.70;99.90;;;;;;4905444;29;20080;-77
2021/12/24 03:41:29;;;;;;;4.38;2.30;;;9.70;99.90;;;;;;4905036;28;20036;-77
2021/12/24 03:43:55;;;;;;;3.88;1.90;;;9.70;99.90;;;;;;4920942;29;20040;-77
2021/12/24 03:46:30;;;;;;;3.75;1.90;;;9.70;99.90;;;;;;4906021;29;20043;-77
2021/12/24 03:49:01;;;;;;;4.82;2.00;;;9.70;99.90;;;;;;4917916;28;20054;-77
2021/12/24 03:56:42;;;;;;;3.75;1.83;;;9.60;99.90;;;;;;4900997;29;20060;-77
2021/12/24 03:59:19;;;;;;;5.38;2.10;;;9.50;99.90;;;;;;4900300;28;20040;-78
2021/12/24 04:02:03;;;;;;;3.53;1.83;;;9.40;99.90;;;;;;4887037;29;20080;-78
2021/12/24 04:04:35;;;;;;;5.68;2.08;;;9.30;99.90;;;;;;4886685;29;20063;-78
2021/12/24 04:07:15;;;;;;;3.80;2.00;;;9.30;99.90;;;;;;4887402;29;20056;-79
2021/12/24 04:09:55;;;;;;;5.38;1.98;;;9.10;99.90;;;;;;4904551;29;20044;-78
2021/12/24 04:12:44;;;;;;;3.70;1.98;;;9.10;99.90;;;;;;4886507;28;20040;-76
2021/12/24 04:15:10;;;;;;;5.45;1.85;;;9.00;99.90;;;;;;4887246;29;20037;-77
2021/12/24 04:17:39;;;;;;;4.82;1.95;;;8.90;99.90;;;;;;4885360;29;20025;-77
2021/12/24 04:25:34;;;;;;;3.78;2.15;;;8.80;99.90;;;;;;4884955;28;20103;-78
2021/12/24 04:28:00;;;;;;;4.03;1.98;;;8.70;99.90;;;;;;4885946;29;20321;-77
2021/12/24 04:30:34;;;;;;;3.10;1.48;;;8.70;99.90;;;;;;4887888;29;20037;-77
2021/12/24 04:33:11;;;;;;;3.53;1.95;;;8.60;99.90;;;;;;4901321;28;20060;-77
2021/12/24 04:35:44;;;;;;;5.40;2.20;;;8.60;99.90;;;;;;4885313;29;20029;-76
2021/12/24 05:03:36;;;;;;;6.32;1.92;;;9.00;99.90;;;;;;4963160;28;20035;-79
2021/12/24 05:08:58;;;;;;;6.68;2.42;;;9.50;99.90;;;;;;4954041;29;20046;-78
2021/12/24 05:11:25;;;;;;;3.40;2.00;;;9.60;99.90;;;;;;4963335;28;20299;-78
2021/12/24 05:13:52;;;;;;;4.75;2.05;;;9.70;99.90;;;;;;4963143;28;20028;-78
2021/12/24 05:16:37;;;;;;;4.47;1.90;;;9.90;99.90;;;;;;4960561;28;20031;-78
2021/12/24 05:22:11;;;;;;;5.07;2.17;;;10.30;99.90;;;;;;4945587;29;20234;-79
2021/12/24 05:24:39;;;;;;;5.47;2.10;;;10.40;99.90;;;;;;4959619;28;20051;-79
2021/12/24 05:27:05;;;;;;;4.60;1.70;;;10.50;99.90;;;;;;4960365;28;20050;-79
2021/12/24 05:29:31;;;;;;;5.35;2.00;;;10.50;99.90;;;;;;4959864;28;20019;-79
2021/12/24 05:31:58;;;;;;;4.28;1.92;;;10.60;99.90;;;;;;4945437;29;20035;-78
2021/12/24 05:34:24;;;;;;;4.43;2.15;;;10.50;99.90;;;;;;4963677;28;20028;-79
2021/12/24 05:36:50;;;;;;;3.10;1.92;;;10.50;99.90;;;;;;4944852;29;20078;-79
2021/12/24 05:39:17;;;;;;;4.43;1.90;;;10.30;99.90;;;;;;4960018;28;20329;-80
2021/12/24 05:41:46;;;;;;;4.05;1.67;;;10.20;99.90;;;;;;4959802;28;20065;-79
2021/12/24 05:44:15;;;;;;;4.75;1.88;;;10.10;99.90;;;;;;4960202;28;20035;-79
2021/12/24 05:46:45;;;;;;;4.22;2.03;;;10.10;99.90;;;;;;4959389;28;20222;-80
2021/12/24 05:49:20;;;;;;;5.00;2.10;;;10.10;99.90;;;;;;4944242;29;20058;-78
2021/12/24 05:52:11;;;;;;;4.05;2.05;;;10.20;99.90;;;;;;4937164;29;20275;-79
2021/12/24 05:54:40;;;;;;;;;;;10.20;99.90;;;;;;4962313;28;20322;-79
2021/12/24 05:57:16;;;;;;;3.42;1.65;;;10.20;99.90;;;;;;4916539;29;19916;-79
2021/12/24 05:59:42;;;;;;;3.78;1.85;;;10.20;99.90;;;;;;4898877;28;20072;-80
2021/12/24 06:02:08;;;;;;;3.03;1.80;;;10.30;99.90;;;;;;4911177;28;20036;-80
2021/12/24 06:04:34;;;;;;;4.78;2.08;;;10.20;99.90;;;;;;4914400;28;20306;-80
2021/12/24 06:07:00;;;;;;;5.68;2.10;;;10.20;99.90;;;;;;4907574;28;20032;-79
2021/12/24 06:09:25;;;;;;;3.83;2.38;;;10.10;99.90;;;;;;4906381;29;20412;-79
2021/12/24 06:11:51;;;;;;;3.92;2.03;;;10.10;99.90;;;;;;4907180;28;20151;-79
2021/12/24 06:14:18;;;;;;;3.75;2.10;;;10.10;99.90;;;;;;4905887;29;20031;-79
2021/12/24 06:17:00;;;;;;;4.10;2.28;;;10.10;99.90;;;;;;4887861;28;20045;-79
2021/12/24 06:19:26;;;;;;;4.75;2.00;;;10.10;99.90;;;;;;4897295;29;20271;-79
2021/12/24 06:21:53;;;;;;;4.07;2.30;;;10.10;99.90;;;;;;4887752;29;20424;-79
2021/12/24 06:24:19;;;;;;;4.70;2.40;;;10.00;99.90;;;;;;4887729;28;20041;-80
2021/12/24 06:26:46;;;;;;;5.38;2.25;;;10.00;99.90;;;;;;4902782;29;20037;-80
2021/12/24 06:29:12;;;;;;;5.80;2.20;;;10.10;99.90;;;;;;4887229;28;20032;-79
2021/12/24 06:31:38;;;;;;;4.75;2.70;;;10.10;99.90;;;;;;4887813;28;20049;-80
2021/12/24 06:34:04;;;;;;;5.57;2.35;;;10.10;99.90;;;;;;4887427;29;20025;-79
2021/12/24 06:36:34;;;;;;;5.22;2.55;;;10.10;99.90;;;;;;4901172;29;20299;-79
2021/12/24 06:39:01;;;;;;;3.90;2.35;;;10.10;99.90;;;;;;4907445;29;20037;-80
2021/12/24 06:41:26;;;;;;;4.50;2.22;;;10.30;99.90;;;;;;4907379;28;20403;-80
2021/12/24 06:43:53;;;;;;;4.85;2.60;;;10.30;99.90;;;;;;4906738;29;20029;-79
2021/12/24 06:46:19;;;;;;;5.40;2.17;;;10.30;99.90;;;;;;4906627;28;20044;-81
2021/12/24 06:48:45;;;;;;;4.47;2.17;;;10.40;99.90;;;;;;4906907;29;20204;-79
2021/12/24 06:51:11;;;;;;;4.28;2.45;;;10.60;99.90;;;;;;4906858;29;20040;-80
2021/12/24 06:53:37;;;;;;;4.45;2.58;;;10.60;99.90;;;;;;4904967;29;20033;-80
2021/12/24 06:56:04;;;;;;;3.97;2.63;;;10.60;99.90;;;;;;4902694;28;20060;-79
2021/12/24 06:58:31;;;;;;;4.38;2.30;;;10.60;99.90;;;;;;4902632;28;20041;-79
2021/12/24 07:00:58;;;;;;;3.92;2.20;;;10.70;99.90;;;;;;4886405;28;20045;-81
2021/12/24 07:03:24;;;;;;;4.00;2.42;;;10.60;99.90;;;;;;4887008;28;20025;-80
2021/12/24 07:05:50;;;;;;;5.03;2.38;;;10.60;99.90;;;;;;4886372;29;20041;-80
2021/12/24 07:08:15;;;;;;;4.78;2.50;;;10.50;99.90;;;;;;4888450;29;20041;-80
2021/12/24 07:10:41;;;;;;;4.43;2.20;;;10.50;99.90;;;;;;4900921;29;20358;-79
2021/12/24 07:13:07;;;;;;;4.20;2.45;;;10.50;99.90;;;;;;4905947;29;20230;-80
2021/12/24 07:15:33;;;;;;;5.32;2.53;;;10.50;99.90;;;;;;4889801;28;20056;-81
2021/12/24 07:17:59;;;;;;;6.03;2.40;;;10.50;99.90;;;;;;4888933;28;20042;-80
2021/12/24 07:20:25;;;;;;;4.85;2.40;;;10.50;99.90;;;;;;4888369;29;20092;-80
2021/12/24 07:22:50;;;;;;;4.45;2.70;;;10.50;99.90;;;;;;4887904;29;20027;-81
2021/12/24 07:25:16;;;;;;;4.70;2.47;;;10.50;99.90;;;;;;4887140;29;20028;-80
2021/12/24 07:27:42;;;;;;;6.88;2.95;;;10.50;99.90;;;;;;4887238;29;20071;-80
2021/12/24 07:30:10;;;;;;;5.78;2.60;;;10.50;99.90;;;;;;4870583;28;20036;-80
2021/12/24 07:32:37;;;;;;;5.03;2.28;;;10.50;99.90;;;;;;4887809;29;20316;-79
2021/12/24 07:35:04;;;;;;;5.15;2.70;;;10.40;99.90;;;;;;4887755;29;20319;-79
2021/12/24 07:37:29;;;;;;;5.43;2.75;;;10.40;99.90;;;;;;4889369;29;20025;-81
2021/12/24 07:39:55;;;;;;;4.50;2.38;;;10.30;99.90;;;;;;4920420;29;20064;-80
2021/12/24 07:42:21;;;;;;;3.95;2.55;;;10.20;99.90;;;;;;4906000;29;20099;-80
2021/12/24 07:44:47;;;;;;;4.57;2.35;;;10.20;99.90;;;;;;4905717;29;20027;-79
2021/12/24 07:47:18;;;;;;;4.38;2.58;;;10.20;99.90;;;;;;4920503;29;20041;-79
2021/12/24 07:49:45;;;;;;;4.00;2.60;;;10.10;99.90;;;;;;4920321;29;20036;-78
2021/12/24 07:52:13;;;;;;;4.55;2.30;;;10.20;99.90;;;;;;4905717;29;20095;-79
2021/12/24 07:54:44;;;;;;;6.13;2.58;;;10.20;99.90;;;;;;4905867;29;20044;-79
2021/12/24 07:57:14;;;;;;;5.20;2.55;;;10.20;99.90;;;;;;4905560;28;20394;-80
2021/12/24 07:59:41;;;;;;;4.80;2.63;;;10.20;99.90;;;;;;4901629;29;20048;-78
2021/12/24 08:02:10;;;;;;;5.22;3.15;;;10.10;99.90;;;;;;4907460;28;20316;-79
2021/12/24 08:04:38;;;;;;;6.00;2.70;;;10.10;99.90;;;;;;4905906;28;20033;-77
2021/12/24 08:07:05;;;;;;;4.60;2.67;;;10.10;99.90;;;;;;4897949;29;20033;-79
2021/12/24 08:09:30;;;;;;;5.13;2.50;;;10.10;99.90;;;;;;4966926;28;20024;-78
2021/12/24 08:11:56;;;;;;;5.53;2.90;;;10.10;99.90;;;;;;4905461;29;20036;-80
2021/12/24 08:14:22;;;;;;;4.45;2.78;;;10.10;99.90;;;;;;4904643;29;20047;-78
2021/12/24 08:16:48;;;;;;;4.35;2.40;;;10.00;99.90;;;;;;4904560;29;20115;-79
2021/12/24 08:19:16;;;;;;;5.47;2.42;;;10.10;99.90;;;;;;4898081;29;20064;-78
2021/12/24 08:21:45;;;;;;;5.07;2.08;;;10.10;99.90;;;;;;4886547;29;20049;-78
2021/12/24 08:24:11;;;;;;;5.17;2.67;;;10.10;99.90;;;;;;4886237;29;20091;-78
2021/12/24 08:26:36;;;;;;;5.57;2.42;;;10.10;99.90;;;;;;4886017;29;20096;-78
2021/12/24 08:29:03;;;;;;;4.05;2.20;;;10.10;99.90;;;;;;4885425;28;20040;-78
2021/12/24 08:31:29;;;;;;;4.25;2.30;;;10.10;99.90;;;;;;4885303;29;20057;-78
2021/12/24 08:33:55;;;;;;;6.75;2.55;;;10.20;99.90;;;;;;4887472;29;20037;-79
2021/12/24 08:36:20;;;;;;;5.35;2.20;;;10.10;99.90;;;;;;4885911;29;20056;-78
2021/12/24 08:38:46;;;;;;;4.90;2.53;;;10.10;99.90;;;;;;4889285;28;20079;-80
2021/12/24 08:41:12;;;;;;;5.18;2.38;;;10.10;99.90;;;;;;4903759;29;20028;-79
2021/12/24 08:43:38;;;;;;;3.88;2.50;;;10.20;99.90;;;;;;4905147;29;20032;-80
2021/12/24 08:46:04;;;;;;;3.92;2.25;;;10.20;99.90;;;;;;4904288;28;20049;-80
2021/12/24 08:48:30;;;;;;;6.40;2.30;;;10.30;99.90;;;;;;4905115;28;20032;-79
2021/12/24 08:50:57;;;;;;;6.50;2.80;;;10.30;99.90;;;;;;4904509;29;20036;-79
2021/12/24 08:53:23;;;;;;;5.97;2.10;;;10.20;99.90;;;;;;4900597;28;20017;-80
2021/12/24 08:55:50;;;;;;;3.90;2.30;;;10.30;99.90;;;;;;4895493;28;20339;-79
2021/12/24 08:58:16;;;;;;;5.95;2.50;;;10.20;99.90;;;;;;4904934;29;20108;-79
2021/12/24 09:00:42;;;;;;;5.50;2.50;;;10.30;99.90;;;;;;4901578;28;20196;-79
2021/12/24 09:03:08;;;;;;;4.93;2.53;;;10.30;99.90;;;;;;4945890;28;20049;-78
2021/12/24 09:05:34;;;;;;;4.18;2.15;;;10.30;99.90;;;;;;4938083;28;20207;-78
2021/12/24 09:08:01;;;;;;;5.22;2.45;;;10.30;99.90;;;;;;4991095;28;20014;-79
2021/12/24 09:10:27;;;;;;;4.97;2.40;;;10.30;99.90;;;;;;4949661;28;20024;-77
2021/12/24 09:12:53;;;;;;;3.92;1.88;;;10.30;99.90;;;;;;4909261;28;20043;-79
2021/12/24 09:15:19;;;;;;;4.15;2.20;;;10.30;99.90;;;;;;4903661;28;20188;-79
2021/12/24 09:17:47;;;;;;;4.47;2.28;;;10.30;99.90;;;;;;4968563;28;20072;-78
2021/12/24 09:20:27;;;;;;;6.40;2.30;;;10.30;99.90;;;;;;4903241;29;20060;-78
2021/12/24 09:22:55;;;;;;;4.28;2.28;;;10.20;99.90;;;;;;4901953;29;20033;-80
2021/12/24 09:25:23;;;;;;;3.75;2.40;;;10.20;99.90;;;;;;4904423;29;20311;-78
2021/12/24 09:27:50;;;;;;;4.10;2.30;;;10.10;99.90;;;;;;4904120;29;20077;-80
2021/12/24 09:30:16;;;;;;;5.25;2.22;;;10.20;99.90;;;;;;4903458;28;20392;-79
2021/12/24 09:32:42;;;;;;;5.03;2.00;;;10.20;99.90;;;;;;4904782;29;20021;-78
2021/12/24 09:35:10;;;;;;;6.28;2.20;;;10.20;99.90;;;;;;4904077;29;20040;-78
2021/12/24 09:37:37;;;;;;;5.40;2.55;;;10.20;99.90;;;;;;4903424;29;20346;-81
2021/12/24 09:40:04;;;;;;;5.60;2.60;;;10.20;99.90;;;;;;4904115;28;20025;-79
2021/12/24 09:42:31;;;;;;;4.35;2.50;;;10.10;99.90;;;;;;4902717;28;20067;-77
2021/12/24 09:44:58;;;;;;;4.88;2.10;;;10.10;99.90;;;;;;4903894;29;20327;-78
2021/12/24 09:47:25;;;;;;;5.05;2.90;;;10.00;99.90;;;;;;4903655;28;20059;-78
2021/12/24 09:49:52;;;;;;;4.75;2.92;;;10.00;99.90;;;;;;4887121;28;20103;-79
2021/12/24 09:52:19;;;;;;;7.85;2.92;;;10.00;99.90;;;;;;4904146;29;20231;-77
2021/12/24 09:54:47;;;;;;;4.53;2.10;;;10.00;99.90;;;;;;4903021;29;20020;-79
2021/12/24 09:57:14;;;;;;;5.85;2.72;;;10.00;99.90;;;;;;4903722;28;20298;-79
2021/12/24 09:59:41;;;;;;;4.18;2.30;;;10.00;99.90;;;;;;4902921;28;20110;-78
2021/12/24 10:02:16;;;;;;;4.68;2.38;;;9.90;99.90;;;;;;4897391;28;20060;-77
2021/12/24 10:04:43;;;;;;;5.20;2.92;;;10.00;99.90;;;;;;4885529;29;20040;-79
2021/12/24 10:07:11;;;;;;;6.30;2.33;;;9.90;99.90;;;;;;4929939;28;20024;-78
2021/12/24 10:09:49;;;;;;;5.47;2.20;;;10.00;99.90;;;;;;4939468;28;20027;-78
2021/12/24 10:12:23;;;;;;;4.55;2.40;;;10.00;99.90;;;;;;4892833;29;20037;-77
2021/12/24 10:14:53;;;;;;;4.20;2.22;;;10.00;99.90;;;;;;4893295;28;20063;-78
2021/12/24 10:17:22;;;;;;;4.13;2.45;;;10.00;99.90;;;;;;4893567;29;20284;-78
2021/12/24 10:20:10;;;;;;;4.60;2.20;;;10.00;99.90;;;;;;4894013;29;20100;-79
2021/12/24 10:22:53;;;;;;;3.55;2.05;;;10.00;99.90;;;;;;4934492;28;20070;-78
2021/12/24 10:25:29;;;;;;;5.00;2.30;;;10.00;99.90;;;;;;4935493;28;20037;-78
2021/12/24 10:27:56;;;;;;;4.72;2.40;;;10.00;99.90;;;;;;4947637;28;20325;-79
2021/12/24 10:30:27;;;;;;;4.93;2.70;;;10.00;99.90;;;;;;4928110;28;20053;-78
2021/12/24 10:32:55;;;;;;;4.47;2.70;;;10.00;99.90;;;;;;4885287;28;20079;-78
2021/12/24 10:35:28;;;;;;;4.53;2.60;;;10.00;99.90;;;;;;4884760;29;20033;-78
2021/12/24 10:38:20;;;;;;;3.97;2.28;;;10.00;99.90;;;;;;4884640;29;20041;-78
2021/12/24 10:40:59;;;;;;;5.72;2.30;;;10.00;99.90;;;;;;4887050;29;20037;-79
2021/12/24 10:43:28;;;;;;;6.75;2.20;;;10.10;99.90;;;;;;4872336;29;20056;-80
2021/12/24 10:46:15;;;;;;;3.65;2.20;;;10.10;99.90;;;;;;4904783;28;20107;-78
2021/12/24 10:49:01;;;;;;;4.53;2.10;;;10.10;99.90;;;;;;4907885;28;20036;-80
2021/12/24 10:51:54;;;;;;;5.22;2.58;;;10.00;99.90;;;;;;4907038;29;20025;-79
2021/12/24 10:54:20;;;;;;;3.30;1.90;;;10.00;99.90;;;;;;4905510;28;20040;-79
2021/12/24 10:56:46;;;;;;;4.93;2.40;;;10.00;99.90;;;;;;4906573;29;20107;-79
2021/12/24 10:59:12;;;;;;;4.50;2.20;;;10.00;99.90;;;;;;4906050;29;20075;-80
2021/12/24 11:01:38;;;;;;;5.13;2.15;;;10.00;99.90;;;;;;4905087;28;20111;-80
2021/12/24 11:04:04;;;;;;;5.03;2.28;;;10.00;99.90;;;;;;4907673;28;20060;-79
2021/12/24 11:06:32;;;;;;;3.53;1.92;;;10.00;99.90;;;;;;4889954;28;20053;-79
2021/12/24 11:08:58;;;;;;;3.65;2.30;;;10.00;99.90;;;;;;4901639;28;20037;-79
2021/12/24 11:11:32;;;;;;;5.88;2.15;;;10.00;99.90;;;;;;4906068;29;20044;-79
2021/12/24 11:13:58;;;;;;;3.78;2.15;;;10.00;99.90;;;;;;4904805;29;20032;-79
2021/12/24 11:16:23;;;;;;;3.80;2.10;;;10.00;99.90;;;;;;4889050;28;20230;-78
2021/12/24 11:18:58;;;;;;;3.88;1.95;;;10.00;99.90;;;;;;4904503;28;20458;-79
2021/12/24 11:21:26;;;;;;;3.63;1.73;;;10.00;99.90;;;;;;4889471;28;20032;-78
2021/12/24 11:23:53;;;;;;;4.78;2.85;;;10.10;99.90;;;;;;4905634;28;20196;-80
2021/12/24 11:26:27;;;;;;;3.08;1.85;;;10.00;99.90;;;;;;4905297;29;20048;-77
2021/12/24 11:28:54;;;;;;;3.90;1.75;;;10.10;99.90;;;;;;4905917;29;20055;-79
2021/12/24 11:31:29;;;;;;;3.55;1.60;;;10.00;99.90;;;;;;4904766;28;20060;-79
2021/12/24 11:33:58;;;;;;;3.97;1.58;;;10.10;99.90;;;;;;4905807;28;20052;-79
2021/12/24 11:36:26;;;;;;;3.30;1.40;;;10.10;99.90;;;;;;4906016;29;20105;-79
2021/12/24 11:39:02;;;;;;;3.78;1.70;;;10.10;99.90;;;;;;4905502;29;20052;-79
2021/12/24 11:41:31;;;;;;;3.00;1.08;;;10.10;99.90;;;;;;4905846;29;20043;-79
2021/12/24 11:43:58;;;;;;;2.88;1.50;;;10.10;99.90;;;;;;4905547;29;20025;-78
2021/12/24 11:46:25;;;;;;;2.72;1.52;;;10.10;99.90;;;;;;4900015;29;20040;-80
2021/12/24 11:48:53;;;;;;;3.35;1.30;;;10.20;99.90;;;;;;4904752;29;20051;-78
2021/12/24 11:51:29;;;;;;;4.22;1.38;;;10.20;99.90;;;;;;4904126;28;20066;-79
2021/12/24 11:54:00;;;;;;;3.22;1.50;;;10.30;99.90;;;;;;4904200;29;20064;-78
2021/12/24 11:56:26;;;;;;;3.25;1.63;;;10.30;99.90;;;;;;4903141;28;20057;-78
2021/12/24 11:58:57;;;;;;;5.65;2.63;;;10.30;99.90;;;;;;4897838;29;20060;-78
2021/12/24 12:01:27;;;;;;;4.22;2.78;;;10.30;99.90;;;;;;4903329;29;20044;-79
2021/12/24 12:03:58;;;;;;;2.38;1.23;;;10.40;99.90;;;;;;4905907;29;20333;-79
2021/12/24 12:06:25;;;;;;;5.60;1.50;;;10.50;99.90;;;;;;4902772;29;20334;-78
2021/12/24 12:08:55;;;;;;;3.55;1.17;;;10.50;99.90;;;;;;4902659;29;20037;-77
2021/12/24 12:11:28;;;;;;;2.63;1.17;;;10.70;99.90;;;;;;4900274;28;20066;-79
2021/12/24 12:14:05;;;;;;;3.47;1.98;;;10.80;99.90;;;;;;4916616;28;20029;-80
2021/12/24 12:16:43;;;;;;;2.58;1.67;;;10.90;99.90;;;;;;4951663;28;20050;-78
2021/12/24 12:22:26;;;;;;;4.00;1.67;;;10.80;99.90;;;;;;4893069;29;20215;-78
2021/12/24 12:25:09;;;;;;;3.08;1.20;;;10.90;99.90;;;;;;4905191;28;20219;-79
2021/12/24 12:27:53;;;;;;;1.90;0.90;;;10.90;99.90;;;;;;4902926;28;20035;-79
2021/12/24 12:30:25;;;;;;;2.58;0.80;;;11.00;99.90;;;;;;4904583;28;20087;-79
2021/12/24 12:33:02;;;;;;;1.60;0.70;;;11.10;99.90;;;;;;4905597;29;20051;-80
2021/12/24 12:35:53;;;;;;;1.83;0.80;;;11.10;99.90;;;;;;4979443;28;20234;-79
2021/12/24 12:38:32;;;;;;;1.70;0.77;;;11.10;99.90;;;;;;4904801;29;20032;-79
2021/12/24 12:41:36;;;;;;;1.83;0.90;;;11.10;99.90;;;;;;4903438;29;20291;-79
2021/12/24 12:44:07;;;;;;;1.35;0.60;;;11.00;99.90;;;;;;4904723;29;20032;-78
2021/12/24 12:46:36;;;;;;;2.28;0.75;;;11.00;99.90;;;;;;4919257;28;20264;-79
2021/12/24 12:49:06;;;;;;;;;;;11.00;99.90;;;;;;4900757;28;20040;-78
2021/12/24 12:51:49;;;;;;;1.75;0.70;;;11.00;99.90;;;;;;4905244;29;19946;-79
2021/12/24 12:54:34;;;;;;;2.15;0.55;;;11.10;99.90;;;;;;4904744;29;20393;-80
2021/12/24 12:57:31;;;;;;;2.10;0.70;;;11.10;99.90;;;;;;4904581;29;20127;-80
2021/12/24 13:00:19;;;;;;;2.30;0.73;;;11.10;99.90;;;;;;4907889;29;20331;-79
2021/12/24 13:03:06;;;;;;;1.98;0.75;;;11.00;99.90;;;;;;4903690;28;20107;-78
2021/12/24 13:05:42;;;;;;;2.35;0.77;;;10.90;99.90;;;;;;4919355;29;20200;-79
2021/12/24 13:08:21;;;;;;;2.33;0.70;;;10.90;99.90;;;;;;4919128;29;20039;-82
2021/12/24 13:11:09;;;;;;;1.30;0.50;;;11.00;99.90;;;;;;4902383;29;20219;-79
2021/12/24 13:14:00;;;;;;;3.25;0.98;;;11.00;99.90;;;;;;4919440;28;20028;-80
2021/12/24 13:17:21;;;;;;;1.98;0.75;;;11.00;99.90;;;;;;4903155;28;20103;-79
2021/12/24 13:25:01;;;;;;;2.10;0.60;;;11.00;99.90;;;;;;4905009;29;20025;-79
2021/12/24 13:27:34;;;;;;;1.42;0.60;;;10.90;99.90;;;;;;4904743;29;20025;-79
2021/12/24 13:30:20;;;;;;;1.63;0.60;;;10.90;99.90;;;;;;4899104;29;20028;-78
2021/12/24 13:32:49;;;;;;;1.30;0.60;;;10.90;99.90;;;;;;4903462;29;20049;-78
2021/12/24 13:35:19;;;;;;;1.55;0.70;;;10.90;99.90;;;;;;4904710;29;20192;-79
2021/12/24 13:37:46;;;;;;;2.05;0.68;;;10.80;99.90;;;;;;4919278;29;20315;-80
2021/12/24 13:40:20;;;;;;;1.52;0.60;;;10.90;99.90;;;;;;4887641;29;20040;-80
2021/12/24 13:43:08;;;;;;;1.65;0.73;;;10.80;99.90;;;;;;4903205;29;20083;-79
2021/12/24 13:45:37;;;;;;;1.60;0.60;;;10.80;99.90;;;;;;4903877;28;20063;-78
2021/12/24 13:48:11;;;;;;;2.03;0.75;;;10.80;99.90;;;;;;4904191;29;20064;-78
2021/12/24 13:56:20;;;;;;;1.73;0.70;;;10.80;99.90;;;;;;4885483;29;20056;-78
2021/12/24 13:58:57;;;;;;;2.17;0.77;;;10.70;99.90;;;;;;4886631;29;20087;-79
2021/12/24 14:01:28;;;;;;;2.38;1.00;;;10.70;99.90;;;;;;4899569;28;20072;-78
2021/12/24 14:03:56;;;;;;;2.08;0.90;;;10.70;99.90;;;;;;4885007;29;20021;-80
2021/12/24 14:06:40;;;;;;;2.92;1.00;;;10.60;99.90;;;;;;4895342;29;20052;-78
2021/12/24 14:09:15;;;;;;;2.78;0.60;;;10.60;99.90;;;;;;4904313;29;20370;-79
2021/12/24 14:11:42;;;;;;;1.88;0.90;;;10.60;99.90;;;;;;4902178;28;20366;-78
2021/12/24 14:14:13;;;;;;;1.85;0.85;;;10.60;99.90;;;;;;4884152;29;20040;-77
2021/12/24 14:19:18;;;;;;;2.20;0.80;;;10.60;99.90;;;;;;4887212;29;20044;-79
2021/12/24 14:21:47;;;;;;;2.35;0.90;;;10.60;99.90;;;;;;4926292;28;20034;-77
2021/12/24 14:24:24;;;;;;;2.33;0.73;;;10.70;99.90;;;;;;4947190;28;20251;-78
2021/12/24 14:26:59;;;;;;;2.08;0.77;;;10.70;99.90;;;;;;4961444;28;20090;-77
2021/12/24 14:29:30;;;;;;;2.33;0.90;;;10.70;99.90;;;;;;4932042;28;20043;-77
2021/12/24 14:32:13;;;;;;;2.47;0.98;;;10.70;99.90;;;;;;4933942;28;20057;-78
2021/12/24 14:34:42;;;;;;;2.60;0.80;;;10.70;99.90;;;;;;4931117;29;20060;-78
2021/12/24 14:37:19;;;;;;;2.17;0.90;;;10.70;99.90;;;;;;4915929;29;20083;-77
2021/12/24 14:39:52;;;;;;;1.50;0.70;;;10.60;99.90;;;;;;4890804;28;20078;-77
2021/12/24 14:42:21;;;;;;;1.67;0.70;;;10.60;99.90;;;;;;4905834;29;20036;-78
2021/12/24 14:44:49;;;;;;;2.03;0.80;;;10.60;99.90;;;;;;4906606;29;20020;-78
2021/12/24 14:47:25;;;;;;;;;;;10.60;99.90;;;;;;4910364;28;20336;-79
2021/12/24 14:50:00;;;;;;;3.25;0.90;;;10.60;99.90;;;;;;4888963;29;19908;-81
2021/12/24 14:52:26;;;;;;;2.33;0.80;;;10.60;99.90;;;;;;4888329;29;20045;-78
2021/12/24 14:55:22;;;;;;;1.70;0.70;;;10.60;99.90;;;;;;4921038;29;20315;-79
2021/12/24 14:57:55;;;;;;;2.42;0.80;;;10.60;99.90;;;;;;4906967;28;20052;-79